Time;durP1;ratioP1;P1;durP2;ratioP2;P2;SDS_P1;SDS_P2;PMS_P1;PMS_P2;Temp;Humidity;BMP_temperature;BMP_pressure;BME280_temperature;BME280_humidity;BME280_pressure;Samples;Min_cycle;Max_cycle;Signal;HPM_P1;HPM_P2
2022/12/09 00:01:20;;;;;;;17.52;10.35;;;;;;;1.26;80.21;97209.28;5010596;28;20037;-92
2022/12/09 00:03:48;;;;;;;17.42;9.80;;;;;;;1.10;80.49;97180.84;5018724;28;20033;-91
2022/12/09 00:06:23;;;;;;;16.33;9.80;;;;;;;1.15;80.82;97181.19;5018882;28;20055;-91
2022/12/09 00:08:49;;;;;;;16.60;8.70;;;;;;;1.22;80.83;97179.56;5036183;28;20029;-91
2022/12/09 00:11:21;;;;;;;19.15;9.10;;;;;;;1.31;81.22;97194.06;5024399;28;20041;-90
2022/12/09 00:13:52;;;;;;;15.82;9.88;;;;;;;1.39;81.48;97197.63;5002339;28;20040;-90
2022/12/09 00:16:19;;;;;;;17.05;9.70;;;;;;;1.44;81.66;97195.34;5002670;28;20504;-91
2022/12/09 00:18:45;;;;;;;17.85;10.30;;;;;;;1.32;81.24;97182.78;5011272;28;20022;-90
2022/12/09 00:21:23;;;;;;;16.55;9.23;;;;;;;1.47;81.05;97195.03;5004689;28;20037;-91
2022/12/09 00:23:53;;;;;;;19.35;10.77;;;;;;;1.51;80.85;97191.97;5029776;28;20033;-91
2022/12/09 00:26:20;;;;;;;19.88;10.40;;;;;;;1.36;80.61;97169.53;5007743;28;20030;-92
2022/12/09 00:28:48;;;;;;;18.50;10.35;;;;;;;1.39;80.81;97176.97;5024049;28;20021;-91
2022/12/09 00:31:23;;;;;;;16.25;9.05;;;;;;;1.37;80.66;97161.59;5033742;28;20049;-91
2022/12/09 00:33:55;;;;;;;15.88;9.60;;;;;;;1.52;80.45;97190.97;5023718;28;20093;-91
2022/12/09 00:36:22;;;;;;;16.33;9.82;;;;;;;1.51;80.69;97186.78;5018158;28;20562;-91
2022/12/09 00:38:48;;;;;;;16.58;9.93;;;;;;;1.38;81.13;97186.50;5033945;28;20125;-91
2022/12/09 00:41:16;;;;;;;16.00;9.63;;;;;;;1.48;80.59;97187.09;5028188;28;20037;-91
2022/12/09 00:43:43;;;;;;;16.10;9.75;;;;;;;1.40;80.72;97157.91;5033683;28;20090;-91
2022/12/09 00:46:11;;;;;;;15.35;9.32;;;;;;;1.38;80.67;97158.06;5037902;28;20044;-91
2022/12/09 00:48:38;;;;;;;16.05;10.13;;;;;;;1.57;80.55;97188.72;5015825;28;20041;-92
2022/12/09 00:51:13;;;;;;;14.07;9.52;;;;;;;1.58;80.46;97192.09;5021049;28;20120;-91
2022/12/09 00:53:38;;;;;;;14.57;8.77;;;;;;;1.42;80.04;97169.66;5032181;28;20725;-92
2022/12/09 00:56:05;;;;;;;16.38;9.02;;;;;;;1.42;80.23;97174.03;5034564;28;20116;-91
2022/12/09 00:58:31;;;;;;;17.95;9.75;;;;;;;1.44;80.01;97174.66;4995176;28;20032;-91
2022/12/09 01:00:59;;;;;;;18.92;10.82;;;;;;;1.31;80.13;97170.81;5016988;28;20030;-91
2022/12/09 01:03:25;;;;;;;21.13;10.70;;;;;;;1.30;80.81;97166.63;5017615;28;20037;-90
2022/12/09 01:05:50;;;;;;;19.20;9.77;;;;;;;1.18;79.71;97152.44;5035322;28;20039;-92
2022/12/09 01:08:16;;;;;;;15.10;9.13;;;;;;;1.05;80.12;97188.28;5024554;28;20057;-92
2022/12/09 01:10:44;;;;;;;16.77;9.40;;;;;;;1.08;81.35;97175.06;5021282;28;20045;-91
2022/12/09 01:13:11;;;;;;;16.23;9.02;;;;;;;1.13;81.59;97182.28;5000736;28;20029;-91
2022/12/09 01:15:39;;;;;;;17.52;9.77;;;;;;;1.03;80.95;97167.78;5033695;28;20029;-91
2022/12/09 01:18:10;;;;;;;17.13;9.57;;;;;;;1.09;81.04;97166.34;5020504;28;20026;-91
2022/12/09 01:20:38;;;;;;;23.42;11.27;;;;;;;1.14;80.98;97168.41;5031640;28;20037;-91
2022/12/09 01:23:04;;;;;;;23.25;11.75;;;;;;;1.15;80.77;97182.97;5022240;28;20092;-91
2022/12/09 01:25:29;;;;;;;24.52;12.85;;;;;;;1.20;80.71;97176.34;5034411;28;20485;-91
2022/12/09 01:27:57;;;;;;;19.10;10.38;;;;;;;0.94;80.45;97175.69;5030862;28;20038;-90
2022/12/09 01:30:26;;;;;;;17.17;11.05;;;;;;;0.67;81.38;97162.13;5025869;28;20405;-91
2022/12/09 01:32:53;;;;;;;20.25;11.25;;;;;;;0.44;82.10;97155.97;4990776;28;20038;-91
2022/12/09 01:35:21;;;;;;;20.02;11.13;;;;;;;0.63;83.09;97172.94;5026338;28;20489;-91
2022/12/09 01:37:47;;;;;;;19.17;10.27;;;;;;;0.62;82.89;97159.22;5020856;28;20485;-91
2022/12/09 01:40:17;;;;;;;18.02;10.75;;;;;;;0.66;82.36;97139.88;5016729;28;20037;-91
2022/12/09 01:42:44;;;;;;;17.70;10.00;;;;;;;0.90;82.64;97171.81;4997629;28;20109;-91
2022/12/09 01:45:20;;;;;;;18.25;10.85;;;;;;;0.90;82.19;97151.97;5013798;28;20420;-91
2022/12/09 01:48:05;;;;;;;17.65;10.43;;;;;;;0.97;81.93;97157.31;5015634;28;20727;-91
2022/12/09 01:50:35;;;;;;;16.83;9.73;;;;;;;1.06;81.75;97159.69;5032207;28;20042;-91
2022/12/09 01:53:00;;;;;;;18.63;10.52;;;;;;;1.01;81.17;97149.06;5013659;28;20036;-91
2022/12/09 01:55:26;;;;;;;17.60;9.32;;;;;;;1.12;80.99;97153.09;4999489;28;20021;-91
2022/12/09 01:57:52;;;;;;;18.30;9.88;;;;;;;1.12;80.98;97155.66;5033783;28;20032;-91
2022/12/09 02:00:20;;;;;;;17.83;10.98;;;;;;;1.12;80.67;97152.28;5008394;28;20056;-90
2022/12/09 02:02:51;;;;;;;16.77;10.27;;;;;;;0.84;80.82;97144.06;5014688;28;20034;-90
2022/12/09 02:05:19;;;;;;;15.90;10.20;;;;;;;0.55;81.35;97132.44;5015378;28;20075;-92
2022/12/09 02:07:45;;;;;;;15.40;8.98;;;;;;;0.15;82.53;97117.69;5010137;28;20084;-92
2022/12/09 02:10:15;;;;;;;17.08;9.15;;;;;;;-0.16;83.83;97120.03;5012644;28;20061;-91
2022/12/09 02:12:55;;;;;;;17.90;9.55;;;;;;;-0.22;85.41;97130.97;5019514;28;20060;-91
2022/12/09 02:16:11;;;;;;;16.67;10.40;;;;;;;-0.02;85.64;97130.53;5030596;28;20033;-90
2022/12/09 02:19:29;;;;;;;20.38;9.65;;;;;;;0.06;85.30;97114.31;4998106;28;20076;-91
2022/12/09 02:21:59;;;;;;;17.85;10.15;;;;;;;0.28;84.80;97119.81;4983145;28;20472;-91
2022/12/09 02:24:52;;;;;;;16.95;10.00;;;;;;;0.48;83.60;97124.53;5006710;28;20061;-91
2022/12/09 02:27:41;;;;;;;16.40;9.20;;;;;;;0.47;83.43;97114.38;5011962;28;20034;-91
2022/12/09 02:30:21;;;;;;;18.05;10.45;;;;;;;0.43;83.82;97102.78;5020065;28;20050;-91
2022/12/09 02:33:24;;;;;;;21.27;11.32;;;;;;;0.60;84.13;97119.03;5031335;28;20421;-92
2022/12/09 02:36:00;;;;;;;16.80;10.20;;;;;;;0.73;84.13;97127.94;5024296;28;20029;-91
2022/12/09 02:38:37;;;;;;;15.40;10.05;;;;;;;0.79;83.65;97116.97;5010437;28;20037;-91
2022/12/09 02:41:29;;;;;;;23.05;10.32;;;;;;;0.90;83.53;97120.16;5010248;28;20391;-91
2022/12/09 02:44:10;;;;;;;20.30;11.07;;;;;;;0.97;83.08;97116.00;5006581;28;20029;-91
2022/12/09 02:46:41;;;;;;;19.58;10.20;;;;;;;0.99;82.63;97114.03;4997767;28;20033;-92
2022/12/09 02:49:08;;;;;;;20.63;11.07;;;;;;;1.19;82.05;97123.03;5020771;28;20048;-91
2022/12/09 02:51:40;;;;;;;18.80;10.35;;;;;;;1.16;81.35;97120.00;5027436;28;20479;-91
2022/12/09 02:54:13;;;;;;;16.52;10.30;;;;;;;1.11;81.10;97102.41;5032666;28;20026;-91
2022/12/09 02:56:51;;;;;;;19.67;10.43;;;;;;;1.27;81.39;97104.16;5032478;28;20037;-91
2022/12/09 02:59:19;;;;;;;23.17;10.93;;;;;;;1.03;80.54;97092.09;5032307;28;20041;-91
2022/12/09 03:02:20;;;;;;;17.10;9.75;;;;;;;0.49;81.64;97086.66;5008462;28;20074;-91
2022/12/09 03:04:57;;;;;;;17.50;10.18;;;;;;;0.18;83.59;97082.09;5032330;28;20059;-91
2022/12/09 03:07:41;;;;;;;15.98;10.38;;;;;;;0.30;83.76;97084.34;5006235;28;20037;-91
2022/12/09 03:10:27;;;;;;;18.13;9.27;;;;;;;0.37;82.96;97082.78;5011320;28;20038;-91
2022/12/09 03:13:20;;;;;;;16.48;9.88;;;;;;;0.16;83.33;97084.03;4994454;28;20040;-91
2022/12/09 03:15:56;;;;;;;19.38;10.52;;;;;;;-0.15;84.47;97072.69;5018158;28;20128;-91
2022/12/09 03:18:28;;;;;;;19.55;11.45;;;;;;;-0.23;85.08;97072.66;5013784;28;20029;-91
2022/12/09 03:20:54;;;;;;;26.23;11.75;;;;;;;-0.06;85.35;97075.13;5011420;28;20397;-91
2022/12/09 03:23:25;;;;;;;16.20;10.13;;;;;;;0.06;84.34;97077.38;5004659;28;20030;-91
2022/12/09 03:25:53;;;;;;;23.13;10.57;;;;;;;-0.28;84.91;97073.94;5006332;28;20029;-91
2022/12/09 03:28:37;;;;;;;17.77;10.05;;;;;;;-0.04;85.95;97086.09;5026911;28;20404;-91
2022/12/09 03:31:11;;;;;;;18.17;10.85;;;;;;;-0.08;85.00;97071.88;4997801;28;20501;-91
2022/12/09 03:33:41;;;;;;;23.38;10.98;;;;;;;0.06;84.62;97077.38;5007212;28;20041;-90
2022/12/09 03:36:12;;;;;;;20.75;11.10;;;;;;;0.30;84.70;97076.63;4993988;28;20033;-91
2022/12/09 03:38:45;;;;;;;19.17;10.57;;;;;;;0.26;84.06;97064.06;5021755;28;20033;-91
2022/12/09 03:41:28;;;;;;;21.58;11.25;;;;;;;0.38;83.08;97067.13;5020821;28;20113;-91
2022/12/09 03:44:08;;;;;;;17.08;10.18;;;;;;;0.52;83.00;97063.91;5025198;28;20041;-91
2022/12/09 03:46:34;;;;;;;21.88;11.10;;;;;;;0.53;82.85;97057.75;5007849;28;20776;-91
2022/12/09 03:49:02;;;;;;;18.23;10.30;;;;;;;0.78;82.71;97086.97;5030626;28;20045;-91
2022/12/09 03:51:41;;;;;;;15.55;9.73;;;;;;;0.82;81.70;97071.13;5018069;28;20109;-91
2022/12/09 03:54:28;;;;;;;19.90;10.65;;;;;;;0.74;81.33;97074.53;5010651;28;20026;-91
2022/12/09 03:56:57;;;;;;;19.70;10.55;;;;;;;0.66;81.80;97051.31;4996634;28;20186;-91
2022/12/09 03:59:29;;;;;;;20.67;9.85;;;;;;;0.82;81.78;97076.31;5018355;28;20033;-91
2022/12/09 04:01:56;;;;;;;20.65;11.15;;;;;;;0.85;81.00;97078.56;5030409;28;20038;-91
2022/12/09 04:04:22;;;;;;;17.98;9.95;;;;;;;0.76;80.80;97063.06;5012616;28;20045;-90
2022/12/09 04:06:53;;;;;;;18.65;9.80;;;;;;;0.79;80.54;97073.09;5009833;28;20111;-92
2022/12/09 04:09:18;;;;;;;18.98;9.77;;;;;;;0.72;80.66;97074.72;5023307;28;20132;-91
2022/12/09 04:11:44;;;;;;;18.02;10.98;;;;;;;0.69;80.81;97072.44;5021290;28;20112;-90
2022/12/09 04:14:10;;;;;;;17.63;10.57;;;;;;;0.40;81.51;97079.84;5027894;28;20187;-91
2022/12/09 04:16:35;;;;;;;17.40;9.52;;;;;;;0.30;81.84;97067.13;5028601;28;20577;-91
2022/12/09 04:19:01;;;;;;;15.27;10.23;;;;;;;0.35;81.46;97061.47;5010896;28;20397;-91
2022/12/09 04:21:29;;;;;;;17.48;9.82;;;;;;;-0.04;82.16;97042.25;4994143;28;20034;-91
2022/12/09 04:23:55;;;;;;;20.13;9.70;;;;;;;-0.18;83.45;97062.66;5015915;28;20033;-91
2022/12/09 04:26:22;;;;;;;17.25;9.75;;;;;;;-0.41;84.55;97042.66;5023230;28;20045;-90
2022/12/09 04:28:52;;;;;;;17.33;9.73;;;;;;;-0.40;84.77;97033.97;5022831;28;20115;-91
2022/12/09 04:31:18;;;;;;;17.55;9.93;;;;;;;-0.27;84.93;97070.38;4989513;28;20046;-90
2022/12/09 04:33:45;;;;;;;16.05;9.60;;;;;;;-0.32;85.54;97048.63;5003123;28;20123;-90
2022/12/09 04:36:16;;;;;;;22.52;11.25;;;;;;;-0.19;85.43;97061.06;5010715;28;20034;-91
2022/12/09 04:38:43;;;;;;;16.35;9.32;;;;;;;0.02;84.87;97058.06;4983944;28;20073;-90
2022/12/09 04:41:10;;;;;;;21.45;10.63;;;;;;;0.10;84.35;97053.72;4991266;28;20066;-90
2022/12/09 04:43:36;;;;;;;18.70;10.57;;;;;;;0.14;83.87;97047.28;5006160;28;20037;-90
2022/12/09 04:46:07;;;;;;;19.20;9.82;;;;;;;0.21;83.60;97052.59;4997207;28;20042;-91
2022/12/09 04:48:32;;;;;;;15.82;8.95;;;;;;;0.23;83.40;97036.00;5004096;28;20026;-91
2022/12/09 04:50:58;;;;;;;19.55;10.65;;;;;;;0.24;82.76;97053.09;5014696;28;20044;-90
2022/12/09 04:53:25;;;;;;;20.70;10.20;;;;;;;0.20;82.60;97028.59;5008207;28;20022;-90
2022/12/09 04:56:12;;;;;;;17.15;10.23;;;;;;;0.39;82.22;97061.00;5011646;28;20045;-90
2022/12/09 04:58:38;;;;;;;21.02;9.68;;;;;;;0.39;82.19;97058.41;5008718;28;20029;-90
2022/12/09 05:01:09;;;;;;;14.65;9.60;;;;;;;0.36;82.01;97045.03;5008376;28;20389;-89
2022/12/09 05:03:35;;;;;;;17.95;10.60;;;;;;;0.42;82.03;97052.94;5011355;28;20041;-90
2022/12/09 05:06:11;;;;;;;17.10;9.65;;;;;;;0.34;82.24;97039.22;5004534;28;20038;-90
2022/12/09 05:08:38;;;;;;;15.85;9.85;;;;;;;0.33;82.72;97027.31;5005188;28;20036;-90
2022/12/09 05:11:04;;;;;;;18.83;10.27;;;;;;;0.53;82.92;97047.44;5006356;28;20042;-91
2022/12/09 05:13:30;;;;;;;19.73;10.25;;;;;;;0.52;81.84;97038.09;5003341;28;20030;-90
2022/12/09 05:16:09;;;;;;;14.70;9.85;;;;;;;0.52;81.98;97034.72;5007737;28;20038;-91
2022/12/09 05:18:38;;;;;;;20.10;10.57;;;;;;;0.65;81.79;97040.19;4997713;28;20031;-90
2022/12/09 05:21:13;;;;;;;17.30;9.82;;;;;;;0.70;81.50;97027.59;5009806;28;20035;-90
2022/12/09 05:23:39;;;;;;;17.02;9.75;;;;;;;0.80;81.70;97030.81;4992894;28;20045;-90
2022/12/09 05:26:08;;;;;;;16.98;10.43;;;;;;;0.71;81.00;97029.19;5007502;28;20113;-91
2022/12/09 05:28:35;;;;;;;14.73;9.40;;;;;;;0.76;81.24;97026.94;5013083;28;20045;-89
2022/12/09 05:31:04;;;;;;;16.58;9.75;;;;;;;0.93;81.72;97032.09;5004438;28;20410;-90
2022/12/09 05:33:29;;;;;;;17.52;10.05;;;;;;;1.01;81.13;97026.88;4993282;28;20027;-90
2022/12/09 05:35:58;;;;;;;20.63;11.10;;;;;;;0.95;80.46;97028.34;4994367;28;20128;-90
2022/12/09 05:38:24;;;;;;;17.85;10.32;;;;;;;0.69;81.33;97025.19;4989955;28;20030;-90
2022/12/09 05:40:50;;;;;;;16.30;9.60;;;;;;;0.20;82.14;97007.97;5009396;28;20038;-90
2022/12/09 05:43:16;;;;;;;19.98;10.02;;;;;;;0.02;83.19;97006.50;5012863;28;20156;-90
2022/12/09 05:45:42;;;;;;;18.83;10.75;;;;;;;-0.02;83.98;96995.69;5012492;28;20053;-90
2022/12/09 05:48:08;;;;;;;21.65;10.52;;;;;;;0.24;84.05;97008.44;5011742;28;20034;-90
2022/12/09 05:50:34;;;;;;;18.33;9.90;;;;;;;-0.02;83.63;97006.00;5010286;28;20041;-91
2022/12/09 05:53:00;;;;;;;16.58;10.43;;;;;;;-0.45;85.07;96979.53;4978419;28;20478;-90
2022/12/09 05:55:28;;;;;;;14.77;8.50;;;;;;;-0.46;86.04;97002.88;4991075;28;20489;-91
2022/12/09 05:57:53;;;;;;;9.05;6.00;;;;;;;-0.91;87.60;96998.84;5009577;28;20100;-91
2022/12/09 06:00:22;;;;;;;20.85;9.90;;;;;;;-1.07;88.74;96979.00;5011176;28;20120;-90
2022/12/09 06:02:48;;;;;;;20.23;10.80;;;;;;;-0.90;89.40;96980.69;4994233;28;20241;-90
2022/12/09 06:05:13;;;;;;;14.48;8.00;;;;;;;-1.05;89.20;96981.41;4995346;28;20030;-90
2022/12/09 06:07:39;;;;;;;19.15;10.27;;;;;;;-1.03;89.78;96980.28;5012023;28;20037;-90
2022/12/09 06:10:06;;;;;;;20.73;11.70;;;;;;;-0.79;89.66;96979.56;5007972;28;20041;-89
2022/12/09 06:12:36;;;;;;;20.15;10.85;;;;;;;-0.45;89.35;96989.81;5005736;28;20034;-90
2022/12/09 06:15:01;;;;;;;21.85;12.38;;;;;;;-0.25;87.80;96974.06;5011586;28;20038;-88
2022/12/09 06:17:27;;;;;;;19.48;11.80;;;;;;;-0.13;86.64;96983.91;4996994;28;20029;-89
2022/12/09 06:19:53;;;;;;;19.38;11.40;;;;;;;-0.05;85.74;96970.25;5005196;28;20525;-90
2022/12/09 06:22:18;;;;;;;18.35;9.07;;;;;;;-0.36;84.96;96957.16;5003409;28;20076;-90
2022/12/09 06:24:44;;;;;;;17.45;10.18;;;;;;;-0.65;86.16;96967.88;5002905;28;20092;-88
2022/12/09 06:27:09;;;;;;;20.13;10.93;;;;;;;-0.58;86.81;96981.75;5000162;28;20062;-89
2022/12/09 06:29:38;;;;;;;19.10;10.40;;;;;;;-0.59;86.73;96962.91;5006010;28;20050;-89
2022/12/09 06:32:04;;;;;;;20.63;12.02;;;;;;;-0.37;86.68;96971.81;5003215;28;20037;-89
2022/12/09 06:34:29;;;;;;;21.00;11.77;;;;;;;-0.27;85.93;96951.84;5021816;28;20034;-89
2022/12/09 06:36:57;;;;;;;22.15;10.95;;;;;;;-0.21;84.93;96967.66;5007469;28;20149;-90
2022/12/09 06:39:25;;;;;;;19.38;10.88;;;;;;;-0.28;85.35;96950.25;5007855;28;20048;-89
2022/12/09 06:41:53;;;;;;;20.30;10.38;;;;;;;-0.30;85.41;96969.38;5009784;28;20042;-89
2022/12/09 06:44:19;;;;;;;17.10;10.45;;;;;;;-0.61;86.35;96956.28;4998521;28;20433;-89
2022/12/09 06:46:46;;;;;;;20.15;10.05;;;;;;;-0.64;86.97;96959.19;4996894;28;20034;-89
2022/12/09 06:49:14;;;;;;;19.20;10.77;;;;;;;-0.74;87.60;96948.22;5011314;28;20036;-89
2022/12/09 06:51:42;;;;;;;17.40;9.57;;;;;;;-0.69;87.76;96964.00;5011678;28;20026;-89
2022/12/09 06:54:10;;;;;;;21.50;11.17;;;;;;;-0.56;87.92;96961.78;5002488;28;20096;-89
2022/12/09 06:56:36;;;;;;;20.15;11.10;;;;;;;-0.42;87.41;96957.78;5013077;28;20121;-88
2022/12/09 06:59:07;;;;;;;19.02;10.18;;;;;;;-0.41;87.13;96967.94;5004312;28;20045;-89
2022/12/09 07:01:32;;;;;;;16.95;10.55;;;;;;;-0.56;87.31;96965.16;5010474;28;20030;-89
2022/12/09 07:03:58;;;;;;;19.95;10.95;;;;;;;-0.73;87.88;96954.97;5019886;28;20118;-89
2022/12/09 07:06:35;;;;;;;15.82;9.75;;;;;;;-0.89;88.77;96951.41;5006283;28;20517;-90
2022/12/09 07:09:14;;;;;;;13.57;8.00;;;;;;;-1.16;89.48;96943.88;4999037;28;20069;-89
2022/12/09 07:11:45;;;;;;;11.80;6.63;;;;;;;-1.20;90.08;96937.41;5010032;28;20116;-91
2022/12/09 07:14:15;;;;;;;15.85;8.88;;;;;;;-1.11;90.74;96967.38;5009976;28;20026;-89
2022/12/09 07:16:43;;;;;;;17.13;11.13;;;;;;;-0.95;90.82;96971.81;5007123;28;20088;-89
2022/12/09 07:19:21;;;;;;;14.32;8.05;;;;;;;-0.90;90.20;96975.53;5001214;28;20088;-89
2022/12/09 07:21:51;;;;;;;21.95;10.35;;;;;;;-1.08;90.41;96952.47;5008296;28;20062;-89
2022/12/09 07:24:18;;;;;;;19.25;10.27;;;;;;;-0.82;89.87;96983.28;5000470;28;20087;-90
2022/12/09 07:26:56;;;;;;;13.70;7.38;;;;;;;-1.08;89.70;96956.78;4997118;28;20033;-90
2022/12/09 07:29:22;;;;;;;18.95;9.82;;;;;;;-0.95;89.96;96962.31;4996142;28;20038;-89
2022/12/09 07:31:48;;;;;;;22.50;11.18;;;;;;;-0.77;89.52;96964.00;5009726;28;20033;-90
2022/12/09 07:34:13;;;;;;;22.00;10.70;;;;;;;-0.63;89.16;96971.09;5010550;28;20040;-89
2022/12/09 07:36:40;;;;;;;20.45;11.38;;;;;;;-0.33;89.46;96975.69;5011387;28;20037;-90
2022/12/09 07:39:16;;;;;;;20.08;10.77;;;;;;;-0.02;88.87;96964.75;5006403;28;20034;-90
2022/12/09 07:41:44;;;;;;;19.65;10.90;;;;;;;0.11;86.18;96969.44;5007515;28;20033;-89
2022/12/09 07:44:11;;;;;;;21.30;11.27;;;;;;;0.10;85.24;96978.13;4993141;28;20034;-90
2022/12/09 07:46:38;;;;;;;20.10;11.25;;;;;;;0.12;85.72;96956.41;5011051;28;20037;-89
2022/12/09 07:49:06;;;;;;;20.88;10.90;;;;;;;0.37;85.38;96962.34;4998987;28;20233;-89
2022/12/09 07:51:34;;;;;;;19.15;11.02;;;;;;;0.59;84.84;96962.63;5006228;28;20155;-90
2022/12/09 07:54:02;;;;;;;21.30;11.20;;;;;;;0.71;84.06;96964.69;5005182;28;20093;-90
2022/12/09 07:56:28;;;;;;;20.25;11.35;;;;;;;0.76;83.49;96954.66;5000954;28;20161;-89
2022/12/09 07:58:55;;;;;;;15.10;9.73;;;;;;;0.98;83.62;96966.06;5006398;28;20034;-89
2022/12/09 08:01:26;;;;;;;17.08;10.18;;;;;;;1.05;82.96;96958.47;5006629;28;20482;-90
2022/12/09 08:03:53;;;;;;;15.45;9.35;;;;;;;0.77;81.52;96953.69;5010101;28;20040;-89
2022/12/09 08:06:22;;;;;;;16.25;8.70;;;;;;;0.61;82.14;96966.66;4998624;28;20042;-90
2022/12/09 08:08:49;;;;;;;21.33;11.07;;;;;;;0.48;83.48;96961.19;5003485;28;20041;-89
2022/12/09 08:11:23;;;;;;;17.58;10.10;;;;;;;0.50;84.25;96975.53;5009332;28;20041;-89
2022/12/09 08:13:59;;;;;;;17.20;10.23;;;;;;;0.33;84.60;96961.03;5010351;28;20037;-90
2022/12/09 08:16:30;;;;;;;18.63;10.35;;;;;;;0.36;84.80;96962.47;4998697;28;20038;-89
2022/12/09 08:18:56;;;;;;;19.55;10.68;;;;;;;0.48;85.05;96961.19;5018587;28;20034;-89
2022/12/09 08:21:34;;;;;;;20.50;11.02;;;;;;;0.60;84.88;96954.72;5025934;28;20034;-90
2022/12/09 08:24:04;;;;;;;16.25;9.70;;;;;;;0.63;83.32;96964.72;5011436;28;20038;-90
2022/12/09 08:26:33;;;;;;;19.90;9.88;;;;;;;0.60;83.50;96949.56;5006471;28;20034;-89
2022/12/09 08:29:04;;;;;;;18.15;10.00;;;;;;;0.52;83.68;96954.72;5012961;28;20025;-89
2022/12/09 08:31:30;;;;;;;17.30;9.90;;;;;;;0.33;84.06;96940.41;5031386;28;20038;-89
2022/12/09 08:33:56;;;;;;;16.98;8.10;;;;;;;0.39;84.31;96957.00;5014295;28;20666;-90
2022/12/09 08:36:26;;;;;;;20.50;10.98;;;;;;;0.42;84.64;96947.19;5031567;28;20049;-90
2022/12/09 08:38:53;;;;;;;15.68;9.35;;;;;;;0.34;84.52;96915.44;5011095;28;20033;-89
2022/12/09 08:41:33;;;;;;;15.40;9.23;;;;;;;0.49;84.47;96942.19;5031546;28;20121;-89
2022/12/09 08:44:28;;;;;;;22.48;10.70;;;;;;;0.48;84.79;96930.22;5014681;28;20572;-89
2022/12/09 08:46:56;;;;;;;17.95;10.23;;;;;;;0.44;83.83;96929.75;5007528;28;20041;-90
2022/12/09 08:49:22;;;;;;;17.55;10.18;;;;;;;0.50;84.28;96908.47;5021717;28;20068;-89
2022/12/09 08:51:51;;;;;;;19.55;10.23;;;;;;;0.82;83.59;96936.91;5015360;28;20040;-90
2022/12/09 08:54:17;;;;;;;15.57;9.27;;;;;;;0.62;83.21;96914.06;5029863;28;20026;-88
2022/12/09 08:56:47;;;;;;;18.48;10.30;;;;;;;0.77;83.20;96922.72;5018518;28;20025;-88
2022/12/09 08:59:14;;;;;;;17.70;10.43;;;;;;;0.97;84.25;96919.78;4995957;28;20105;-89
2022/12/09 09:01:40;;;;;;;20.40;11.10;;;;;;;0.93;83.59;96918.50;5013750;28;20096;-89
2022/12/09 09:04:15;;;;;;;21.63;11.23;;;;;;;0.94;81.89;96902.03;5023633;28;20042;-90
2022/12/09 09:06:44;;;;;;;21.02;10.70;;;;;;;0.99;82.70;96907.50;5021847;28;20049;-88
2022/12/09 09:09:13;;;;;;;;;;;;;;;1.02;82.04;96920.03;5000109;28;20093;-88
2022/12/09 09:11:40;;;;;;;20.27;9.90;;;;;;;0.97;83.14;96920.56;5018448;28;19955;-89
2022/12/09 09:14:10;;;;;;;19.50;10.65;;;;;;;1.04;84.35;96918.13;5032274;28;20026;-89
2022/12/09 09:16:39;;;;;;;20.08;11.15;;;;;;;0.85;82.59;96910.78;5029082;28;20034;-88
2022/12/09 09:19:06;;;;;;;21.88;11.15;;;;;;;0.98;82.81;96903.31;4997427;28;20025;-89
2022/12/09 09:21:32;;;;;;;20.35;11.35;;;;;;;0.90;82.42;96893.81;5033570;28;20042;-89
2022/12/09 09:24:01;;;;;;;22.92;11.10;;;;;;;0.97;82.35;96910.25;5033599;28;20057;-88
2022/12/09 09:26:27;;;;;;;21.50;11.93;;;;;;;1.03;82.25;96901.03;5031264;28;20617;-88
2022/12/09 09:28:55;;;;;;;20.58;11.73;;;;;;;1.18;82.74;96907.06;5019946;28;20113;-88
2022/12/09 09:31:23;;;;;;;20.77;11.25;;;;;;;1.25;82.62;96917.53;5014312;28;20183;-88
2022/12/09 09:33:49;;;;;;;20.38;11.23;;;;;;;1.28;83.34;96912.84;5021789;28;20064;-88
2022/12/09 09:36:20;;;;;;;20.88;11.40;;;;;;;1.26;82.27;96909.63;5015115;28;20164;-88
2022/12/09 09:38:52;;;;;;;19.00;11.50;;;;;;;1.37;83.15;96911.00;5022468;28;20078;-88
2022/12/09 09:41:33;;;;;;;20.67;11.35;;;;;;;1.23;83.15;96894.44;5025306;28;20045;-88
2022/12/09 09:44:00;;;;;;;19.35;10.25;;;;;;;1.33;82.58;96913.13;5000824;28;20029;-88
2022/12/09 09:46:43;;;;;;;18.70;10.98;;;;;;;1.41;81.82;96895.97;5026091;28;20049;-88
2022/12/09 09:49:35;;;;;;;25.88;12.73;;;;;;;1.46;82.24;96891.09;5014300;28;20462;-89
2022/12/09 09:52:23;;;;;;;21.25;11.63;;;;;;;1.61;81.27;96902.28;5012035;28;20072;-89
2022/12/09 09:54:51;;;;;;;22.67;11.27;;;;;;;1.53;81.16;96873.94;5021888;28;20033;-88
2022/12/09 09:58:15;;;;;;;20.00;11.32;;;;;;;1.59;81.34;96888.75;5018532;28;20041;-89
2022/12/09 10:01:04;;;;;;;19.70;10.70;;;;;;;1.51;82.73;96875.88;4981307;28;20045;-88
2022/12/09 10:04:00;;;;;;;20.95;11.95;;;;;;;1.70;82.17;96883.16;4996359;28;20393;-89
2022/12/09 10:06:41;;;;;;;20.98;11.15;;;;;;;1.85;81.79;96890.97;5033501;28;20048;-89
2022/12/09 10:09:28;;;;;;;19.80;10.67;;;;;;;1.71;80.60;96887.34;5018583;28;20034;-89
2022/12/09 10:12:09;;;;;;;21.55;11.85;;;;;;;1.46;81.61;96883.34;5027104;28;20304;-89
2022/12/09 10:15:00;;;;;;;21.50;11.98;;;;;;;1.43;82.45;96881.09;5023796;28;20049;-89
2022/12/09 10:17:33;;;;;;;22.05;11.85;;;;;;;1.27;82.34;96854.41;5022920;28;20468;-89
2022/12/09 10:20:11;;;;;;;22.63;11.35;;;;;;;1.35;82.51;96858.69;5029584;28;20025;-89
2022/12/09 10:22:49;;;;;;;22.08;11.95;;;;;;;1.57;82.21;96872.63;5025315;28;20524;-89
2022/12/09 10:25:28;;;;;;;24.77;12.73;;;;;;;1.51;80.93;96868.94;5006168;28;20044;-88
2022/12/09 10:28:23;;;;;;;21.70;11.65;;;;;;;1.49;81.89;96863.13;5004433;28;20109;-89
2022/12/09 10:30:52;;;;;;;26.10;11.32;;;;;;;1.70;82.00;96864.28;5021089;28;20060;-89
2022/12/09 10:33:29;;;;;;;24.38;11.82;;;;;;;1.67;81.10;96836.97;5027979;28;20041;-89
2022/12/09 10:35:57;;;;;;;17.98;9.50;;;;;;;1.53;80.75;96853.25;5018051;28;20084;-89
2022/12/09 10:38:23;;;;;;;17.85;9.05;;;;;;;1.58;81.21;96863.88;5006208;28;20034;-89
2022/12/09 10:41:03;;;;;;;21.80;9.88;;;;;;;1.55;80.93;96861.63;5019323;28;20038;-89
2022/12/09 10:43:37;;;;;;;18.38;9.95;;;;;;;1.64;80.47;96865.78;5020656;28;20029;-90
2022/12/09 10:46:09;;;;;;;28.30;11.68;;;;;;;1.82;80.53;96870.63;5012431;28;20041;-90
2022/12/09 10:48:42;;;;;;;16.48;10.13;;;;;;;1.75;80.24;96851.63;5013698;28;20393;-90
2022/12/09 10:51:30;;;;;;;22.27;12.25;;;;;;;1.82;80.28;96853.34;5009141;28;20034;-90
2022/12/09 10:54:01;;;;;;;18.17;10.10;;;;;;;1.89;79.17;96837.94;5001658;28;20073;-89
2022/12/09 10:56:37;;;;;;;22.05;11.80;;;;;;;2.26;79.88;96850.00;5009194;28;20117;-90
2022/12/09 10:59:12;;;;;;;20.77;11.40;;;;;;;2.36;77.75;96845.38;5022469;28;20045;-90
2022/12/09 11:01:52;;;;;;;20.30;10.65;;;;;;;2.57;76.80;96851.63;5030783;28;20048;-90
2022/12/09 11:04:30;;;;;;;17.70;8.63;;;;;;;2.49;76.14;96843.97;5032903;28;20108;-91
2022/12/09 11:07:14;;;;;;;14.63;8.15;;;;;;;2.46;76.13;96839.13;5023739;28;20037;-91
2022/12/09 11:10:01;;;;;;;19.85;10.65;;;;;;;2.55;76.91;96836.28;5023520;28;20037;-89
2022/12/09 11:12:26;;;;;;;16.85;9.95;;;;;;;2.69;75.71;96837.25;5027449;28;20033;-91
2022/12/09 11:15:02;;;;;;;18.08;9.73;;;;;;;2.76;75.38;96820.03;5023632;28;20029;-91
2022/12/09 11:17:39;;;;;;;16.48;9.57;;;;;;;2.95;74.71;96824.63;4994353;28;20034;-91
2022/12/09 11:20:07;;;;;;;17.70;10.75;;;;;;;2.90;74.26;96826.94;5022456;28;20072;-92
2022/12/09 11:22:37;;;;;;;15.30;8.35;;;;;;;2.82;74.25;96824.47;5009140;28;20054;-91
2022/12/09 11:25:11;;;;;;;19.55;9.98;;;;;;;2.84;76.07;96816.53;5011348;28;20539;-92
2022/12/09 11:27:47;;;;;;;17.05;10.32;;;;;;;2.73;74.50;96815.19;5018996;28;20567;-91
2022/12/09 11:30:18;;;;;;;17.67;10.20;;;;;;;2.84;75.33;96801.78;5012475;28;20513;-92
2022/12/09 11:32:55;;;;;;;17.58;9.85;;;;;;;3.12;75.93;96808.84;5004611;28;20041;-92
2022/12/09 11:35:33;;;;;;;16.02;9.95;;;;;;;3.31;76.52;96803.06;5022116;28;20113;-93
2022/12/09 11:38:11;;;;;;;16.23;9.35;;;;;;;3.42;73.36;96774.06;5020159;28;20055;-93
2022/12/09 11:41:03;;;;;;;20.02;10.45;;;;;;;3.69;72.68;96795.00;5021264;28;20037;-93
2022/12/09 11:43:45;;;;;;;13.82;8.32;;;;;;;3.63;71.69;96795.75;5007105;28;20033;-92
2022/12/09 11:46:12;;;;;;;18.08;9.77;;;;;;;3.81;72.00;96792.72;5027497;28;20029;-93
2022/12/09 11:48:49;;;;;;;17.10;9.57;;;;;;;3.94;72.33;96782.41;5025421;28;20048;-93